GCC Virtual Airport Information Service

Muscat International Airport

ICAO: OOMS Country: OM
Latitude: 23.5933 Longitude: 58.2844
Latest Arrival : OMA8141 (LFPG-OOMS) Latest Departure : OMA8141 (OOMS-LFPG)


WX CaptureLIVE
Data provided by noaa.gov | Fetched at 13:11:43

METAR : OOMS 051150Z 05006KT 020V080 CAVOK 30/17 Q1011 NOSIG

TAF : OOMS 051100Z 0512/0618 05012KT 8000 NSC BECMG 0518/0520 28005KT BECMG 0606/0608 33012KT


Runway Data for OOMS
Data provided by openaviationdata.com

Runway ID Mag Var Hdg Length Elevation Surface ILS Freq ILS Id ILS Slope
2 0 19° 2468 ft 48 ft Dirt -- -- --
8 0 84° 11769 ft 48 ft Asphalt 108.3 IMW 3
20 0 199° 2468 ft 48 ft Dirt -- -- --
26 0 264° 11769 ft 48 ft Asphalt 110.3 ISB 3

Muscat International Airport, OM
Use only for reference purposes



Not for navigational purposes.